Time;durP1;ratioP1;P1;durP2;ratioP2;P2;SDS_P1;SDS_P2;PMS_P1;PMS_P2;Temp;Humidity;BMP_temperature;BMP_pressure;BME280_temperature;BME280_humidity;BME280_pressure;Samples;Min_cycle;Max_cycle;Signal;HPM_P1;HPM_P2
2023/04/05 00:00:31;;;;;;;9.25;2.90;;;-1.70;99.90;;;;;;5038621;28;25093;-74
2023/04/05 00:03:01;;;;;;;4.28;2.13;;;-1.70;99.90;;;;;;5038577;28;25069;-74
2023/04/05 00:05:33;;;;;;;5.53;2.33;;;-1.80;99.90;;;;;;5038096;28;25061;-74
2023/04/05 00:08:01;;;;;;;6.10;2.10;;;-1.80;99.90;;;;;;5038167;28;25078;-74
2023/04/05 00:10:30;;;;;;;12.70;2.65;;;-1.80;99.90;;;;;;5038430;28;25071;-74
2023/04/05 00:12:58;;;;;;;5.18;2.30;;;-1.90;99.90;;;;;;5038036;28;25054;-74
2023/04/05 00:15:28;;;;;;;8.30;2.50;;;-1.90;99.90;;;;;;5038345;28;25074;-74
2023/04/05 00:17:56;;;;;;;5.63;2.60;;;-1.90;99.90;;;;;;5038365;28;25116;-74
2023/04/05 00:20:24;;;;;;;5.90;2.53;;;-1.90;99.90;;;;;;5038033;28;25156;-74
2023/04/05 00:22:51;;;;;;;5.63;2.97;;;-1.90;99.90;;;;;;5020287;28;25077;-74
2023/04/05 00:25:20;;;;;;;4.15;2.35;;;-2.00;99.90;;;;;;5020381;28;25120;-74
2023/04/05 00:27:48;;;;;;;5.72;2.35;;;-2.00;99.90;;;;;;5038152;28;25065;-74
2023/04/05 00:30:19;;;;;;;6.70;2.80;;;-2.00;99.90;;;;;;5037926;28;25139;-74
2023/04/05 00:32:48;;;;;;;6.18;2.75;;;-2.10;99.90;;;;;;5037809;28;25086;-74
2023/04/05 00:35:16;;;;;;;6.15;3.17;;;-2.00;99.90;;;;;;5038076;28;25132;-74
2023/04/05 00:37:44;;;;;;;6.20;2.80;;;-2.10;99.90;;;;;;5020126;28;25058;-74
2023/04/05 00:40:12;;;;;;;9.80;2.95;;;-2.00;99.90;;;;;;5036065;28;25119;-74
2023/04/05 00:42:39;;;;;;;5.70;2.55;;;-2.10;99.90;;;;;;5019557;28;25068;-74
2023/04/05 00:45:07;;;;;;;9.68;3.08;;;-2.10;99.90;;;;;;5038141;28;25056;-73
2023/04/05 00:47:35;;;;;;;7.45;2.85;;;-2.10;99.90;;;;;;5019777;28;25085;-74
2023/04/05 00:50:03;;;;;;;7.00;2.30;;;-2.10;99.90;;;;;;5019927;28;25056;-73
2023/04/05 00:52:31;;;;;;;7.57;2.33;;;-2.20;99.90;;;;;;5019940;28;25106;-74
2023/04/05 00:54:58;;;;;;;4.78;2.45;;;-2.20;99.90;;;;;;5019754;28;25059;-74
2023/04/05 00:57:29;;;;;;;7.25;2.90;;;-2.20;99.90;;;;;;5019794;28;25114;-74
2023/04/05 01:00:00;;;;;;;4.65;2.13;;;-2.30;99.90;;;;;;5038029;28;25071;-74
2023/04/05 01:02:33;;;;;;;6.22;2.60;;;-2.30;99.90;;;;;;5037376;28;25125;-74
2023/04/05 01:05:14;;;;;;;5.10;2.83;;;-2.30;99.90;;;;;;5037460;28;25087;-74
2023/04/05 01:07:50;;;;;;;4.22;2.28;;;-2.30;99.90;;;;;;5037350;28;25094;-74
2023/04/05 01:10:21;;;;;;;5.85;2.22;;;-2.40;99.90;;;;;;5037314;28;25060;-74
2023/04/05 01:12:49;;;;;;;6.38;2.65;;;-2.40;99.90;;;;;;5019549;28;25080;-74
2023/04/05 01:15:17;;;;;;;5.10;2.53;;;-2.50;99.90;;;;;;5019457;28;25056;-74
2023/04/05 01:17:45;;;;;;;5.32;2.13;;;-2.50;99.90;;;;;;5037524;28;25117;-74
2023/04/05 01:20:14;;;;;;;4.80;2.47;;;-2.50;99.90;;;;;;5036759;28;25110;-74
2023/04/05 01:23:10;;;;;;;4.93;2.60;;;-2.60;99.90;;;;;;5037090;28;25117;-74
2023/04/05 01:25:58;;;;;;;8.68;2.70;;;-2.60;99.90;;;;;;5019323;28;25059;-74
2023/04/05 01:29:14;;;;;;;6.05;2.50;;;-2.60;99.90;;;;;;5036927;28;25082;-74
2023/04/05 01:32:07;;;;;;;3.95;1.80;;;-2.60;99.90;;;;;;4993417;28;25125;-74
2023/04/05 01:34:50;;;;;;;5.55;2.20;;;-2.70;99.90;;;;;;5019202;28;25058;-74
2023/04/05 01:37:20;;;;;;;8.18;2.65;;;-2.70;99.90;;;;;;5019347;28;25057;-74
2023/04/05 01:39:49;;;;;;;4.47;2.13;;;-2.70;99.90;;;;;;5018961;28;25064;-74
2023/04/05 01:42:25;;;;;;;5.40;2.67;;;-2.70;99.90;;;;;;5019061;28;25064;-74
2023/04/05 01:44:53;;;;;;;;;;;-2.70;99.90;;;;;;5037459;28;25049;-74
2023/04/05 01:47:20;;;;;;;6.05;2.55;;;-2.80;99.90;;;;;;5017891;28;24076;-74
2023/04/05 01:49:48;;;;;;;5.25;2.80;;;-2.80;99.90;;;;;;5036374;28;25058;-74
2023/04/05 01:52:15;;;;;;;4.68;2.30;;;-2.80;99.90;;;;;;5036400;28;25072;-74
2023/04/05 01:54:42;;;;;;;5.25;2.38;;;-2.90;99.90;;;;;;5036123;28;25067;-74
2023/04/05 01:57:10;;;;;;;4.25;2.30;;;-2.90;99.90;;;;;;5019197;28;25064;-74
2023/04/05 01:59:37;;;;;;;4.68;2.58;;;-2.90;99.90;;;;;;5036553;28;25103;-74
2023/04/05 02:02:05;;;;;;;7.40;3.05;;;-2.90;99.90;;;;;;5034481;28;25062;-74
2023/04/05 02:04:32;;;;;;;4.72;2.28;;;-2.90;99.90;;;;;;5036779;28;25103;-74
2023/04/05 02:07:00;;;;;;;7.22;2.35;;;-2.90;99.90;;;;;;5036443;28;25074;-74
2023/04/05 02:09:27;;;;;;;7.20;2.83;;;-2.90;99.90;;;;;;5036177;28;25064;-74
2023/04/05 02:11:55;;;;;;;3.92;2.30;;;-3.00;99.90;;;;;;5018633;28;25043;-74
2023/04/05 02:14:23;;;;;;;5.90;2.20;;;-3.00;99.90;;;;;;5018644;28;25054;-74
2023/04/05 02:16:52;;;;;;;5.57;2.28;;;-3.00;99.90;;;;;;5036778;28;25141;-74
2023/04/05 02:19:22;;;;;;;8.20;2.97;;;-3.00;99.90;;;;;;5036023;28;25145;-74
2023/04/05 02:21:49;;;;;;;5.78;2.13;;;-3.00;99.90;;;;;;5018702;28;25051;-74
2023/04/05 02:24:17;;;;;;;8.27;2.20;;;-3.00;99.90;;;;;;5035890;28;25074;-74
2023/04/05 02:26:44;;;;;;;3.85;2.10;;;-3.00;99.90;;;;;;5018385;28;25049;-74
2023/04/05 02:29:11;;;;;;;4.57;2.30;;;-3.00;99.90;;;;;;5018439;28;25065;-74
2023/04/05 02:31:38;;;;;;;4.50;2.50;;;-3.00;99.90;;;;;;5036573;28;25103;-74
2023/04/05 02:34:08;;;;;;;8.48;2.42;;;-3.00;99.90;;;;;;5035979;28;25065;-74
2023/04/05 02:36:35;;;;;;;6.30;2.42;;;-3.00;99.90;;;;;;5018410;28;25068;-74
2023/04/05 02:39:04;;;;;;;5.57;2.70;;;-3.00;99.90;;;;;;5035811;28;25126;-74
2023/04/05 02:41:31;;;;;;;5.88;2.38;;;-3.00;99.90;;;;;;5035931;28;25117;-74
2023/04/05 02:43:58;;;;;;;4.22;2.13;;;-3.00;99.90;;;;;;5036404;28;25156;-74
2023/04/05 02:46:25;;;;;;;7.97;2.53;;;-3.00;99.90;;;;;;5036290;28;25072;-74
2023/04/05 02:48:53;;;;;;;5.28;2.65;;;-3.00;99.90;;;;;;5035755;28;25109;-74
2023/04/05 02:51:20;;;;;;;8.35;2.50;;;-3.00;99.90;;;;;;5018353;28;25110;-74
2023/04/05 02:53:48;;;;;;;4.10;2.10;;;-3.10;99.90;;;;;;5035027;28;25089;-74
2023/04/05 02:56:15;;;;;;;6.25;2.50;;;-3.10;99.90;;;;;;5036173;28;25064;-74
2023/04/05 02:58:42;;;;;;;5.57;2.55;;;-3.10;99.90;;;;;;5035105;28;25051;-75
2023/04/05 03:01:10;;;;;;;4.70;1.92;;;-3.10;99.90;;;;;;5035071;28;25062;-74
2023/04/05 03:03:39;;;;;;;6.32;2.67;;;-3.20;99.90;;;;;;5018292;28;25150;-74
2023/04/05 03:06:10;;;;;;;7.18;2.50;;;-3.20;99.90;;;;;;5037045;28;25054;-74
2023/04/05 03:08:42;;;;;;;8.88;3.22;;;-3.20;99.90;;;;;;5039367;28;25053;-74
2023/04/05 03:11:10;;;;;;;12.82;5.05;;;-3.20;99.90;;;;;;5021694;28;25101;-74
2023/04/05 03:13:37;;;;;;;5.80;2.75;;;-3.20;99.90;;;;;;5039308;28;25088;-74
2023/04/05 03:16:05;;;;;;;8.50;2.45;;;-3.20;99.90;;;;;;5039264;28;25100;-74
2023/04/05 03:18:32;;;;;;;3.83;1.85;;;-3.20;99.90;;;;;;5037501;28;25078;-74
2023/04/05 03:21:00;;;;;;;6.70;2.67;;;-3.30;99.90;;;;;;5039242;28;25116;-74
2023/04/05 03:23:30;;;;;;;8.73;2.78;;;-3.30;99.90;;;;;;5039104;28;25073;-74
2023/04/05 03:26:01;;;;;;;11.10;2.42;;;-3.30;99.90;;;;;;5021688;28;25067;-74
2023/04/05 03:28:33;;;;;;;7.32;2.45;;;-3.30;99.90;;;;;;5039041;28;25056;-74
2023/04/05 03:31:01;;;;;;;5.53;2.60;;;-3.40;99.90;;;;;;5039073;28;25074;-74
2023/04/05 03:33:28;;;;;;;5.95;2.42;;;-3.40;99.90;;;;;;5038793;28;25055;-75
2023/04/05 03:35:56;;;;;;;7.65;2.70;;;-3.40;99.90;;;;;;5021032;28;25130;-75
2023/04/05 03:38:23;;;;;;;5.88;2.58;;;-3.40;99.90;;;;;;5021249;28;25073;-75
2023/04/05 03:40:51;;;;;;;5.63;2.53;;;-3.50;99.90;;;;;;5021095;28;25077;-75
2023/04/05 03:43:18;;;;;;;7.72;2.17;;;-3.50;99.90;;;;;;5019329;28;25051;-75
2023/04/05 03:45:45;;;;;;;9.85;2.67;;;-3.50;99.90;;;;;;5039264;28;25047;-75
2023/04/05 03:48:13;;;;;;;7.20;2.83;;;-3.50;99.90;;;;;;5038740;28;25121;-75
2023/04/05 03:50:40;;;;;;;5.70;2.72;;;-3.50;99.90;;;;;;5038048;28;25092;-75
2023/04/05 03:53:07;;;;;;;7.97;3.28;;;-3.50;99.90;;;;;;5038580;28;25138;-75
2023/04/05 03:55:34;;;;;;;7.22;2.92;;;-3.50;99.90;;;;;;5038468;28;25061;-75
2023/04/05 03:58:01;;;;;;;6.57;2.53;;;-3.50;99.90;;;;;;5038840;28;25064;-75
2023/04/05 04:00:28;;;;;;;5.40;2.55;;;-3.50;99.90;;;;;;5020156;28;25070;-75
2023/04/05 04:02:56;;;;;;;3.80;2.13;;;-3.50;99.90;;;;;;5038402;28;25058;-75
2023/04/05 04:05:23;;;;;;;7.28;3.10;;;-3.50;99.90;;;;;;5020841;28;25063;-75
2023/04/05 04:07:51;;;;;;;6.95;2.60;;;-3.60;99.90;;;;;;5036501;28;25062;-75
2023/04/05 04:10:18;;;;;;;9.23;2.90;;;-3.60;99.90;;;;;;5038465;28;25151;-75
2023/04/05 04:12:45;;;;;;;6.05;2.70;;;-3.60;99.90;;;;;;5036475;28;25116;-75
2023/04/05 04:15:12;;;;;;;5.68;2.85;;;-3.60;99.90;;;;;;5037628;28;25063;-75
2023/04/05 04:17:40;;;;;;;6.63;3.20;;;-3.60;99.90;;;;;;5019849;28;25126;-75
2023/04/05 04:20:11;;;;;;;8.82;3.33;;;-3.60;99.90;;;;;;5020625;28;25076;-75
2023/04/05 04:22:39;;;;;;;8.07;2.78;;;-3.60;99.90;;;;;;5038064;28;25068;-75
2023/04/05 04:25:11;;;;;;;6.13;2.78;;;-3.60;99.90;;;;;;5020413;28;25103;-75
2023/04/05 04:27:45;;;;;;;6.38;3.15;;;-3.60;99.90;;;;;;5037621;28;25068;-75
2023/04/05 04:30:14;;;;;;;6.13;3.45;;;-3.60;99.90;;;;;;5020507;28;25065;-75
2023/04/05 04:32:52;;;;;;;8.15;2.58;;;-3.60;99.90;;;;;;5037905;28;25089;-75
2023/04/05 04:35:23;;;;;;;7.22;3.30;;;-3.70;99.90;;;;;;5037881;28;25054;-75
2023/04/05 04:38:06;;;;;;;7.32;3.05;;;-3.70;99.90;;;;;;5038000;28;25110;-75
2023/04/05 04:40:38;;;;;;;8.30;2.90;;;-3.70;99.90;;;;;;5037870;28;25092;-75
2023/04/05 04:43:13;;;;;;;8.25;3.35;;;-3.80;99.90;;;;;;5037671;28;25059;-75
2023/04/05 04:45:40;;;;;;;5.88;2.40;;;-3.80;99.90;;;;;;5020077;28;25067;-75
2023/04/05 04:48:08;;;;;;;7.57;3.05;;;-3.80;99.90;;;;;;5026499;28;25123;-75
2023/04/05 04:50:36;;;;;;;5.40;2.95;;;-3.80;99.90;;;;;;5000593;28;25073;-75
2023/04/05 04:53:04;;;;;;;6.47;2.92;;;-3.80;99.90;;;;;;5017660;28;25112;-75
2023/04/05 04:55:32;;;;;;;5.80;2.72;;;-3.80;99.90;;;;;;5017619;28;25095;-75
2023/04/05 04:57:59;;;;;;;5.50;2.55;;;-3.80;99.90;;;;;;5000724;28;25156;-75
2023/04/05 05:00:27;;;;;;;5.10;2.75;;;-3.80;99.90;;;;;;5017675;28;25071;-75
2023/04/05 05:02:55;;;;;;;6.93;2.80;;;-3.80;99.90;;;;;;5017709;28;25123;-75
2023/04/05 05:05:22;;;;;;;8.63;2.85;;;-3.80;99.90;;;;;;5017515;28;25110;-75
2023/04/05 05:07:51;;;;;;;7.53;2.38;;;-3.80;99.90;;;;;;5015464;28;25078;-75
2023/04/05 05:10:19;;;;;;;7.47;3.28;;;-3.80;99.90;;;;;;4999893;28;25081;-75
2023/04/05 05:12:50;;;;;;;7.60;3.05;;;-3.80;99.90;;;;;;5016958;28;25124;-75
2023/04/05 05:15:18;;;;;;;5.30;2.38;;;-3.70;99.90;;;;;;5017580;28;25049;-75
2023/04/05 05:17:46;;;;;;;16.25;3.45;;;-3.70;99.90;;;;;;5017217;28;25106;-75
2023/04/05 05:20:13;;;;;;;11.93;2.78;;;-3.70;99.90;;;;;;5017340;28;25147;-75
2023/04/05 05:22:41;;;;;;;8.50;2.65;;;-3.70;99.90;;;;;;5017081;28;25119;-75
2023/04/05 05:25:11;;;;;;;6.07;2.78;;;-3.60;99.90;;;;;;5017388;28;25101;-76
2023/04/05 05:27:38;;;;;;;6.90;3.58;;;-3.60;99.90;;;;;;5016985;28;25106;-76
2023/04/05 05:30:06;;;;;;;7.80;3.30;;;-3.60;99.90;;;;;;5016230;28;25088;-76
2023/04/05 05:32:33;;;;;;;8.35;2.83;;;-3.50;99.90;;;;;;4999727;28;25069;-76
2023/04/05 05:35:00;;;;;;;5.95;2.63;;;-3.60;99.90;;;;;;4999534;28;25069;-74
2023/04/05 05:37:33;;;;;;;7.20;2.90;;;-3.50;99.90;;;;;;5017521;28;25054;-76
2023/04/05 05:40:00;;;;;;;7.40;3.35;;;-3.50;99.90;;;;;;4999220;28;25061;-76
2023/04/05 05:42:28;;;;;;;5.57;3.45;;;-3.40;99.90;;;;;;4999672;28;25115;-75
2023/04/05 05:44:55;;;;;;;12.77;4.28;;;-3.30;99.90;;;;;;4999224;28;25126;-75
2023/04/05 05:47:22;;;;;;;11.73;5.03;;;-3.30;99.90;;;;;;5003299;28;25133;-75
2023/04/05 05:49:59;;;;;;;12.20;4.85;;;-3.20;99.90;;;;;;5036756;28;25081;-82
2023/04/05 05:52:26;;;;;;;12.55;4.95;;;-3.20;99.90;;;;;;5036558;28;25109;-81
2023/04/05 05:54:53;;;;;;;34.72;12.65;;;-3.10;99.90;;;;;;5018818;28;25120;-81
2023/04/05 05:57:22;;;;;;;19.17;6.63;;;-3.00;99.90;;;;;;5036699;28;25065;-79
2023/04/05 05:59:49;;;;;;;9.98;4.95;;;-3.00;99.90;;;;;;5036289;28;25089;-79
2023/04/05 06:02:17;;;;;;;8.65;4.25;;;-2.90;99.90;;;;;;5036672;28;25073;-82
2023/04/05 06:04:46;;;;;;;10.02;3.97;;;-2.90;99.90;;;;;;5020170;28;25113;-81
2023/04/05 06:07:13;;;;;;;10.95;4.38;;;-2.80;99.90;;;;;;5036462;28;25080;-78
2023/04/05 06:09:41;;;;;;;13.07;4.13;;;-2.80;99.90;;;;;;5035877;28;25054;-74
2023/04/05 06:12:08;;;;;;;9.70;4.38;;;-2.70;99.90;;;;;;5018679;28;25069;-76
2023/04/05 06:14:36;;;;;;;13.07;5.03;;;-2.60;99.90;;;;;;5036243;28;25112;-75
2023/04/05 06:17:03;;;;;;;11.40;4.25;;;-2.60;99.90;;;;;;5036335;28;25095;-75
2023/04/05 06:19:30;;;;;;;9.63;4.20;;;-2.50;99.90;;;;;;5036044;28;25047;-75
2023/04/05 06:22:00;;;;;;;8.43;3.60;;;-2.40;99.90;;;;;;5036211;28;25113;-75
2023/04/05 06:24:30;;;;;;;7.47;3.00;;;-2.40;99.90;;;;;;5036624;28;25118;-74
2023/04/05 06:26:59;;;;;;;7.25;2.78;;;-2.30;99.90;;;;;;5036708;28;25078;-75
2023/04/05 06:29:27;;;;;;;7.90;3.10;;;-2.20;99.90;;;;;;5036084;28;25077;-74
2023/04/05 06:31:55;;;;;;;5.22;2.60;;;-2.10;99.90;;;;;;5036126;28;25116;-77
2023/04/05 06:34:23;;;;;;;7.75;3.35;;;-2.00;99.90;;;;;;5036007;28;25076;-74
2023/04/05 06:36:50;;;;;;;5.38;2.35;;;-1.90;99.90;;;;;;5036749;28;25143;-74
2023/04/05 06:39:18;;;;;;;6.30;3.05;;;-1.80;99.90;;;;;;5036372;28;25078;-76
2023/04/05 06:41:45;;;;;;;8.35;3.50;;;-1.80;99.90;;;;;;5039556;28;25113;-74
2023/04/05 06:44:13;;;;;;;4.97;3.20;;;-1.70;99.90;;;;;;5039908;28;25063;-74
2023/04/05 06:46:40;;;;;;;7.82;3.40;;;-1.60;99.90;;;;;;5039837;28;25094;-73
2023/04/05 06:49:08;;;;;;;8.18;3.42;;;-1.50;99.90;;;;;;5022066;28;25083;-75
2023/04/05 06:51:35;;;;;;;10.02;4.10;;;-1.50;99.90;;;;;;5040042;28;25066;-75
2023/04/05 06:54:04;;;;;;;13.98;6.65;;;-1.40;99.90;;;;;;5022065;28;25096;-74
2023/04/05 06:56:32;;;;;;;14.93;5.80;;;-1.30;99.90;;;;;;5039974;28;25126;-74
2023/04/05 06:59:01;;;;;;;11.77;3.83;;;-1.20;99.90;;;;;;5039888;28;25082;-75
2023/04/05 07:01:29;;;;;;;9.68;3.00;;;-1.10;99.90;;;;;;5039775;28;25169;-75
2023/04/05 07:03:56;;;;;;;8.45;3.55;;;-1.00;99.90;;;;;;5040082;28;25109;-74
2023/04/05 07:06:23;;;;;;;12.90;4.38;;;-0.80;99.90;;;;;;5039524;28;25090;-75
2023/04/05 07:08:51;;;;;;;5.47;3.13;;;-0.70;99.90;;;;;;5039422;28;25078;-75
2023/04/05 07:11:20;;;;;;;10.57;3.40;;;-0.60;99.90;;;;;;5039857;28;25119;-75
2023/04/05 07:13:47;;;;;;;5.63;3.10;;;-0.50;99.90;;;;;;5039668;28;25075;-75
2023/04/05 07:16:16;;;;;;;5.72;3.05;;;-0.30;99.90;;;;;;5039298;28;25078;-75
2023/04/05 07:18:45;;;;;;;6.03;2.88;;;-0.30;99.90;;;;;;5039279;28;25086;-75
2023/04/05 07:21:13;;;;;;;7.70;3.00;;;-0.20;99.90;;;;;;5021775;28;25077;-75
2023/04/05 07:23:41;;;;;;;10.20;3.35;;;-0.10;99.90;;;;;;5021563;28;25076;-75
2023/04/05 07:26:11;;;;;;;8.88;3.05;;;0.10;99.90;;;;;;5021575;28;25111;-75
2023/04/05 07:28:38;;;;;;;4.53;2.83;;;0.20;99.90;;;;;;5039330;28;25076;-75
2023/04/05 07:31:06;;;;;;;5.45;2.85;;;0.30;99.90;;;;;;5039721;28;25071;-75
2023/04/05 07:33:34;;;;;;;8.07;3.55;;;0.40;99.90;;;;;;5039035;28;25072;-75
2023/04/05 07:36:02;;;;;;;9.73;3.00;;;0.40;99.90;;;;;;5021409;28;25136;-75
2023/04/05 07:38:29;;;;;;;9.75;3.63;;;0.50;99.90;;;;;;5038881;28;25097;-75
2023/04/05 07:40:57;;;;;;;5.80;3.10;;;0.60;99.90;;;;;;5039038;28;25144;-75
2023/04/05 07:43:24;;;;;;;8.40;2.80;;;0.70;99.90;;;;;;5038827;28;25104;-75
2023/04/05 07:45:52;;;;;;;11.25;5.03;;;0.80;99.90;;;;;;5039384;28;25105;-75
2023/04/05 07:48:20;;;;;;;10.70;2.97;;;0.90;99.90;;;;;;5020578;28;25114;-75
2023/04/05 07:50:47;;;;;;;12.27;3.38;;;1.00;99.90;;;;;;5038867;28;25082;-75
2023/04/05 07:53:15;;;;;;;6.93;3.10;;;1.10;99.90;;;;;;5037620;28;25061;-75
2023/04/05 07:55:43;;;;;;;10.02;3.83;;;1.10;99.90;;;;;;5038564;28;25064;-75
2023/04/05 07:58:10;;;;;;;5.68;3.00;;;1.20;99.90;;;;;;5020993;28;25082;-75
2023/04/05 08:00:37;;;;;;;9.40;3.58;;;1.30;99.90;;;;;;5039011;28;25066;-75
2023/04/05 08:03:06;;;;;;;5.90;3.03;;;1.40;99.90;;;;;;5020895;28;25070;-75
2023/04/05 08:05:34;;;;;;;11.50;4.50;;;1.50;99.90;;;;;;5020858;28;25097;-75
2023/04/05 08:08:01;;;;;;;8.85;3.70;;;1.60;99.90;;;;;;5038279;28;25051;-75
2023/04/05 08:10:28;;;;;;;6.82;2.85;;;1.70;99.90;;;;;;5038631;28;25105;-75
2023/04/05 08:12:56;;;;;;;7.45;3.22;;;1.80;99.90;;;;;;5038480;28;24953;-75
2023/04/05 08:15:23;;;;;;;7.78;3.22;;;1.90;99.90;;;;;;5038315;28;25073;-75
2023/04/05 08:17:51;;;;;;;6.95;3.20;;;1.90;99.90;;;;;;5038148;28;25076;-75
2023/04/05 08:20:18;;;;;;;7.05;3.50;;;2.00;99.90;;;;;;5020520;28;25063;-78
2023/04/05 08:22:46;;;;;;;7.22;3.30;;;2.10;99.90;;;;;;5020373;28;25060;-78
2023/04/05 08:25:13;;;;;;;7.25;2.55;;;2.20;99.90;;;;;;5038158;28;25057;-74
2023/04/05 08:27:40;;;;;;;8.02;3.40;;;2.30;99.90;;;;;;5038272;28;25081;-75
2023/04/05 08:30:08;;;;;;;5.55;3.13;;;2.40;99.90;;;;;;5038240;28;25064;-73
2023/04/05 08:32:35;;;;;;;6.78;2.80;;;2.60;99.90;;;;;;5037645;28;25070;-79
2023/04/05 08:35:03;;;;;;;5.05;2.78;;;2.70;99.90;;;;;;5020264;28;25048;-76
2023/04/05 08:37:34;;;;;;;9.65;3.53;;;2.90;99.90;;;;;;5020161;28;25095;-75
2023/04/05 08:40:03;;;;;;;7.15;2.78;;;3.00;99.90;;;;;;5037582;28;25113;-74
2023/04/05 08:42:36;;;;;;;8.52;3.03;;;3.10;99.90;;;;;;5037638;28;25057;-74
2023/04/05 08:45:09;;;;;;;5.38;3.38;;;3.30;99.90;;;;;;5020111;28;25069;-74
2023/04/05 08:47:41;;;;;;;8.43;2.58;;;3.40;99.90;;;;;;5038084;28;25098;-75
2023/04/05 08:50:12;;;;;;;14.13;3.20;;;3.60;99.90;;;;;;5037480;28;25124;-74
2023/04/05 08:52:41;;;;;;;4.00;2.35;;;3.70;99.90;;;;;;5037687;28;25072;-74
2023/04/05 08:55:09;;;;;;;4.78;2.53;;;3.80;99.90;;;;;;5038108;28;25076;-74
2023/04/05 08:57:43;;;;;;;5.50;2.35;;;4.00;99.90;;;;;;5037599;28;25074;-74
2023/04/05 09:00:11;;;;;;;4.45;2.58;;;4.10;99.90;;;;;;5037193;28;25098;-74
2023/04/05 09:02:39;;;;;;;8.90;2.55;;;4.30;99.90;;;;;;5019595;28;25107;-74
2023/04/05 09:05:10;;;;;;;10.85;3.33;;;4.50;99.90;;;;;;5037232;28;25079;-74
2023/04/05 09:07:39;;;;;;;6.65;2.45;;;4.70;99.90;;;;;;5037480;28;25064;-74
2023/04/05 09:10:08;;;;;;;6.20;2.40;;;4.90;99.90;;;;;;5037167;28;25121;-74
2023/04/05 09:12:37;;;;;;;5.13;2.45;;;5.00;99.90;;;;;;5040892;28;25059;-75
2023/04/05 09:15:05;;;;;;;5.93;2.00;;;5.10;99.90;;;;;;5040881;28;25125;-76
2023/04/05 09:17:33;;;;;;;4.38;1.73;;;5.10;99.90;;;;;;5041462;28;25112;-75
2023/04/05 09:20:02;;;;;;;10.13;1.70;;;5.00;99.90;;;;;;5040201;28;25062;-77
2023/04/05 09:22:29;;;;;;;7.18;2.10;;;5.00;99.90;;;;;;5042860;28;25089;-76
2023/04/05 09:24:56;;;;;;;6.00;2.22;;;4.90;99.90;;;;;;5042396;28;25062;-78
2023/04/05 09:27:24;;;;;;;6.82;2.08;;;4.70;99.90;;;;;;5021245;28;25070;-77
2023/04/05 09:29:51;;;;;;;5.10;2.40;;;4.60;99.90;;;;;;5036886;28;25073;-76
2023/04/05 09:32:20;;;;;;;7.40;2.08;;;4.50;99.90;;;;;;5036986;28;25095;-75
2023/04/05 09:34:48;;;;;;;8.55;2.03;;;4.50;99.90;;;;;;5036788;28;25063;-75
2023/04/05 09:37:20;;;;;;;7.22;2.15;;;4.50;99.90;;;;;;5018998;28;25111;-75
2023/04/05 09:39:50;;;;;;;4.75;1.75;;;4.50;99.90;;;;;;5018884;28;25125;-76
2023/04/05 09:42:21;;;;;;;3.58;1.90;;;4.50;99.90;;;;;;5037153;28;25060;-76
2023/04/05 09:45:07;;;;;;;6.80;2.42;;;4.60;98.90;;;;;;5036597;28;25063;-76
2023/04/05 09:47:34;;;;;;;6.15;2.08;;;4.70;97.30;;;;;;5036832;28;25094;-76
2023/04/05 09:50:19;;;;;;;3.90;1.92;;;4.80;96.30;;;;;;5036386;28;25074;-76
2023/04/05 09:52:47;;;;;;;5.32;1.92;;;4.90;95.90;;;;;;5018766;28;25082;-75
2023/04/05 09:55:26;;;;;;;6.50;1.95;;;4.90;95.60;;;;;;5036348;28;25070;-75
2023/04/05 09:57:53;;;;;;;4.25;1.52;;;5.00;94.70;;;;;;5036402;28;25091;-75
2023/04/05 10:00:22;;;;;;;4.05;2.17;;;5.10;94.80;;;;;;5019015;28;25060;-75
2023/04/05 10:02:55;;;;;;;6.13;1.80;;;5.20;95.10;;;;;;5036305;28;25148;-75
2023/04/05 10:05:29;;;;;;;4.95;1.83;;;5.40;94.60;;;;;;5036381;28;25098;-75
2023/04/05 10:07:58;;;;;;;5.93;2.20;;;5.40;94.60;;;;;;5036377;28;25076;-75
2023/04/05 10:10:25;;;;;;;4.85;2.22;;;5.50;94.20;;;;;;5018792;28;25069;-75
2023/04/05 10:12:54;;;;;;;4.75;2.08;;;5.50;92.90;;;;;;5018575;28;25078;-74
2023/04/05 10:15:22;;;;;;;4.57;1.85;;;5.50;92.80;;;;;;5035479;28;25060;-74
2023/04/05 10:18:00;;;;;;;5.80;1.90;;;5.60;92.60;;;;;;5036160;28;25075;-74
2023/04/05 10:20:31;;;;;;;5.35;1.67;;;5.60;92.40;;;;;;5036795;28;25054;-74
2023/04/05 10:23:05;;;;;;;6.68;1.70;;;5.60;92.40;;;;;;5036043;28;25061;-74
2023/04/05 10:25:53;;;;;;;4.18;2.33;;;5.70;92.20;;;;;;5036688;28;25140;-75
2023/04/05 10:28:32;;;;;;;4.10;1.60;;;5.90;91.70;;;;;;5036559;28;25094;-75
2023/04/05 10:31:13;;;;;;;3.85;1.63;;;6.00;91.00;;;;;;5018856;28;25064;-75
2023/04/05 10:33:46;;;;;;;4.95;1.60;;;6.20;89.60;;;;;;5036299;28;25050;-76
2023/04/05 10:36:39;;;;;;;3.65;2.08;;;6.50;85.70;;;;;;5036015;28;25063;-75
2023/04/05 10:39:40;;;;;;;7.03;1.58;;;6.60;83.10;;;;;;5018438;28;25064;-74
2023/04/05 10:42:21;;;;;;;4.85;2.00;;;6.70;83.30;;;;;;5036134;28;25062;-75
2023/04/05 10:45:03;;;;;;;3.70;1.75;;;6.80;85.80;;;;;;5035616;28;25096;-76
2023/04/05 10:47:37;;;;;;;2.95;1.65;;;6.90;84.10;;;;;;5036311;28;25106;-76
2023/04/05 10:50:08;;;;;;;4.72;1.50;;;7.00;83.40;;;;;;5035664;28;25093;-76
2023/04/05 10:52:39;;;;;;;6.28;1.58;;;7.00;82.70;;;;;;5036186;28;25076;-75
2023/04/05 10:55:09;;;;;;;4.10;2.17;;;7.10;82.90;;;;;;5035993;28;25056;-75
2023/04/05 10:57:37;;;;;;;3.08;1.90;;;7.20;83.50;;;;;;5017241;28;25054;-76
2023/04/05 11:00:06;;;;;;;6.88;2.30;;;7.20;82.80;;;;;;5018051;28;25095;-76
2023/04/05 11:02:34;;;;;;;4.72;1.92;;;7.30;82.60;;;;;;5036078;28;25054;-75
2023/04/05 11:05:04;;;;;;;3.00;1.65;;;7.40;81.20;;;;;;5018164;28;25066;-76
2023/04/05 11:07:48;;;;;;;4.30;1.83;;;7.40;80.20;;;;;;5036027;28;25071;-75
2023/04/05 11:10:19;;;;;;;4.55;1.67;;;7.40;80.00;;;;;;5035924;28;25088;-76
2023/04/05 11:12:56;;;;;;;2.72;1.70;;;7.60;80.30;;;;;;5035600;28;25090;-76
2023/04/05 11:15:27;;;;;;;4.53;1.80;;;7.70;79.50;;;;;;5036198;28;25091;-75
2023/04/05 11:18:04;;;;;;;3.58;1.85;;;7.90;78.10;;;;;;5035820;28;25125;-75
2023/04/05 11:20:54;;;;;;;4.13;1.77;;;8.00;77.40;;;;;;5035849;28;25065;-75
2023/04/05 11:23:24;;;;;;;4.13;2.00;;;8.10;76.80;;;;;;5035533;28;25068;-73
2023/04/05 11:25:53;;;;;;;4.47;2.03;;;8.20;77.10;;;;;;5036357;28;25074;-73
2023/04/05 11:28:28;;;;;;;5.22;1.52;;;8.40;76.70;;;;;;5020888;28;25085;-73
2023/04/05 11:31:02;;;;;;;3.58;1.63;;;8.50;75.10;;;;;;5039165;28;25070;-72
2023/04/05 11:33:46;;;;;;;3.60;1.42;;;8.70;76.00;;;;;;5021275;28;25058;-73
2023/04/05 11:36:30;;;;;;;3.58;1.52;;;8.80;75.10;;;;;;5039382;28;25072;-72
2023/04/05 11:39:22;;;;;;;4.88;1.85;;;8.90;73.40;;;;;;5021335;28;25076;-72
2023/04/05 11:42:05;;;;;;;2.63;1.40;;;9.00;72.90;;;;;;5039187;28;25059;-75
2023/04/05 11:44:59;;;;;;;7.00;1.60;;;9.10;72.30;;;;;;5021145;28;25071;-75
2023/04/05 11:47:27;;;;;;;3.75;2.08;;;9.10;71.70;;;;;;5018349;28;25060;-75
2023/04/05 11:49:54;;;;;;;4.00;1.73;;;9.30;70.60;;;;;;5020953;28;25076;-72
2023/04/05 11:52:21;;;;;;;4.70;1.58;;;9.40;71.70;;;;;;5021097;28;25052;-72
2023/04/05 11:54:49;;;;;;;4.38;1.80;;;9.60;71.40;;;;;;5021032;28;25108;-72
2023/04/05 11:57:21;;;;;;;3.33;1.80;;;9.70;70.30;;;;;;5039145;28;25151;-72
2023/04/05 11:59:53;;;;;;;4.10;1.73;;;9.90;69.10;;;;;;5020310;28;25065;-72
2023/04/05 12:02:20;;;;;;;5.32;1.85;;;10.00;69.90;;;;;;5038424;28;25081;-72
2023/04/05 12:04:58;;;;;;;4.63;2.25;;;10.20;70.40;;;;;;5037892;28;25144;-72
2023/04/05 12:07:30;;;;;;;3.00;1.67;;;10.30;67.40;;;;;;5038867;28;25063;-72
2023/04/05 12:10:04;;;;;;;2.75;1.77;;;10.30;67.70;;;;;;5038262;28;25127;-72
2023/04/05 12:12:37;;;;;;;4.53;1.83;;;10.20;66.50;;;;;;5020725;28;25099;-72
2023/04/05 12:15:07;;;;;;;3.92;1.83;;;10.20;67.70;;;;;;5038231;28;25099;-72
2023/04/05 12:17:48;;;;;;;5.10;2.55;;;10.20;68.00;;;;;;5038292;28;25089;-72
2023/04/05 12:20:19;;;;;;;3.92;1.70;;;10.20;66.60;;;;;;5038162;28;25062;-71
2023/04/05 12:22:48;;;;;;;6.65;1.98;;;10.20;66.70;;;;;;5037591;28;25075;-72
2023/04/05 12:25:16;;;;;;;4.88;1.85;;;10.20;66.70;;;;;;5020683;28;25139;-72
2023/04/05 12:27:44;;;;;;;4.38;1.80;;;10.20;65.70;;;;;;5037888;28;25059;-72
2023/04/05 12:30:14;;;;;;;3.10;1.70;;;10.10;65.40;;;;;;5038039;28;25044;-72
2023/04/05 12:32:45;;;;;;;3.60;1.98;;;10.20;65.10;;;;;;5037964;28;25060;-72
2023/04/05 12:35:33;;;;;;;5.38;2.00;;;10.20;65.40;;;;;;5038192;28;25055;-70
2023/04/05 12:38:05;;;;;;;3.95;1.70;;;10.20;65.70;;;;;;5037557;28;25079;-72
2023/04/05 12:40:34;;;;;;;5.13;1.90;;;10.20;64.70;;;;;;5020072;28;25085;-72
2023/04/05 12:43:07;;;;;;;5.40;1.98;;;10.20;64.30;;;;;;5037756;28;25063;-73
2023/04/05 12:45:38;;;;;;;2.60;1.45;;;10.20;64.70;;;;;;5020213;28;25110;-73
2023/04/05 12:48:11;;;;;;;3.40;1.65;;;10.30;64.30;;;;;;5037492;28;25120;-72
2023/04/05 12:50:50;;;;;;;4.00;2.08;;;10.30;64.10;;;;;;5037565;28;25061;-72
2023/04/05 12:53:27;;;;;;;5.50;2.05;;;10.30;64.30;;;;;;5037320;28;25079;-72
2023/04/05 12:55:55;;;;;;;7.18;1.70;;;10.30;64.20;;;;;;5020038;28;25051;-71
2023/04/05 12:58:34;;;;;;;4.43;1.88;;;10.30;63.50;;;;;;5019620;28;25139;-71
2023/04/05 13:01:03;;;;;;;3.80;1.70;;;10.30;62.80;;;;;;5037553;28;25078;-74
2023/04/05 13:03:30;;;;;;;4.93;1.80;;;10.30;63.30;;;;;;5019929;28;25136;-74
2023/04/05 13:05:58;;;;;;;5.45;2.17;;;10.10;63.40;;;;;;5019648;28;25082;-74